createdAt,value
2019-03-08T00:00:08.681Z,3.41
2019-03-08T00:01:12.933Z,3.41
2019-03-08T00:02:17.188Z,3.41
2019-03-08T00:03:21.368Z,3.47
2019-03-08T00:04:25.616Z,3.46
2019-03-08T00:05:29.913Z,3.43
2019-03-08T00:06:34.172Z,3.46
2019-03-08T00:07:38.483Z,3.50
2019-03-08T00:08:42.717Z,3.45
2019-03-08T00:09:47.008Z,3.45
2019-03-08T00:10:51.332Z,3.42
2019-03-08T00:11:55.529Z,3.44
2019-03-08T00:12:59.770Z,3.37
2019-03-08T00:14:03.946Z,3.34
2019-03-08T00:15:08.223Z,3.34
2019-03-08T00:16:12.500Z,3.36
2019-03-08T00:17:16.698Z,3.29
2019-03-08T00:18:20.875Z,3.31
2019-03-08T00:19:25.200Z,3.33
2019-03-08T00:20:29.455Z,3.32
2019-03-08T00:21:33.701Z,3.34
2019-03-08T00:22:37.991Z,3.34
2019-03-08T00:23:42.239Z,3.31
2019-03-08T00:24:46.506Z,3.32
2019-03-08T00:25:50.735Z,3.33
2019-03-08T00:26:55.024Z,3.30
2019-03-08T00:27:59.366Z,3.34
2019-03-08T00:29:03.756Z,3.33
2019-03-08T00:30:07.925Z,3.34
2019-03-08T00:31:12.181Z,3.36
2019-03-08T00:32:16.455Z,3.37
2019-03-08T00:33:20.698Z,3.39
2019-03-08T00:34:24.890Z,3.38
2019-03-08T00:35:29.184Z,3.40
2019-03-08T00:36:33.453Z,3.40
2019-03-08T00:37:37.709Z,3.41
2019-03-08T00:38:41.883Z,3.41
2019-03-08T00:39:46.226Z,3.43
2019-03-08T00:40:50.365Z,3.41
2019-03-08T00:41:54.724Z,3.45
2019-03-08T00:42:58.991Z,3.45
2019-03-08T00:44:03.146Z,3.46
2019-03-08T00:45:07.451Z,3.43
2019-03-08T00:46:11.606Z,3.41
2019-03-08T00:47:15.917Z,3.42
2019-03-08T00:48:20.132Z,3.42
2019-03-08T00:49:24.352Z,3.34
2019-03-08T00:50:28.641Z,3.36
2019-03-08T00:51:32.912Z,3.37
2019-03-08T00:52:37.047Z,3.35
2019-03-08T00:53:41.258Z,3.39
2019-03-08T00:54:45.624Z,3.40
2019-03-08T00:55:49.864Z,3.34
2019-03-08T00:56:54.079Z,3.38
2019-03-08T00:57:58.241Z,3.35
2019-03-08T00:59:02.548Z,3.38
2019-03-08T01:00:06.829Z,3.39
2019-03-08T01:01:11.085Z,3.40
2019-03-08T01:02:15.227Z,3.40
2019-03-08T01:03:19.549Z,3.41
2019-03-08T01:04:23.717Z,3.42
2019-03-08T01:05:28.047Z,3.42
2019-03-08T01:06:32.169Z,3.42
2019-03-08T01:07:36.496Z,3.38
2019-03-08T01:08:40.749Z,3.36
2019-03-08T01:09:45.030Z,3.38
2019-03-08T01:10:49.312Z,3.43
2019-03-08T01:11:53.570Z,3.43
2019-03-08T01:12:57.868Z,3.42
2019-03-08T01:14:02.129Z,3.36
2019-03-08T01:15:06.408Z,3.39
2019-03-08T01:16:10.668Z,3.40
2019-03-08T01:17:14.943Z,3.44
2019-03-08T01:18:19.108Z,3.41
2019-03-08T01:19:23.400Z,3.38
2019-03-08T01:20:27.694Z,3.42
2019-03-08T01:21:32.049Z,3.40
2019-03-08T01:22:36.175Z,3.41
2019-03-08T01:23:40.400Z,3.36
2019-03-08T01:24:44.753Z,3.39
2019-03-08T01:25:48.902Z,3.47
2019-03-08T01:26:53.177Z,3.44
2019-03-08T01:27:57.456Z,3.43
2019-03-08T01:29:01.703Z,3.29
2019-03-08T01:30:05.986Z,3.28
2019-03-08T01:31:10.267Z,3.27
2019-03-08T01:32:14.490Z,3.24
2019-03-08T01:33:18.735Z,3.26
2019-03-08T01:34:23.004Z,3.34
2019-03-08T01:35:27.305Z,3.26
2019-03-08T01:36:31.598Z,3.18
2019-03-08T01:37:35.834Z,3.31
2019-03-08T01:38:40.095Z,3.22
2019-03-08T01:39:44.291Z,3.30
2019-03-08T01:40:48.616Z,3.29
2019-03-08T01:41:52.800Z,3.26
2019-03-08T01:42:57.108Z,3.27
2019-03-08T01:44:01.336Z,3.24
2019-03-08T01:45:05.636Z,3.24
2019-03-08T01:46:09.893Z,3.36
2019-03-08T01:47:14.132Z,3.25
2019-03-08T01:48:18.378Z,3.31
2019-03-08T01:49:22.666Z,3.32
2019-03-08T01:50:26.921Z,3.29
2019-03-08T01:51:31.082Z,3.22
2019-03-08T01:52:35.347Z,3.21
2019-03-08T01:53:39.592Z,3.31
2019-03-08T01:54:43.883Z,3.15
2019-03-08T01:55:48.172Z,3.23
2019-03-08T01:56:52.437Z,3.28
2019-03-08T01:57:56.706Z,3.28
2019-03-08T01:59:00.954Z,3.32
2019-03-08T02:00:05.210Z,3.32
2019-03-08T02:01:09.495Z,3.33
2019-03-08T02:02:13.755Z,3.41
2019-03-08T02:03:18.024Z,3.38
2019-03-08T02:04:22.280Z,3.42
2019-03-08T02:05:26.566Z,3.44
2019-03-08T02:06:30.843Z,3.48
2019-03-08T02:07:35.085Z,3.51
2019-03-08T02:08:39.268Z,3.52
2019-03-08T02:09:43.568Z,3.50
2019-03-08T02:10:47.831Z,3.52
2019-03-08T02:11:52.094Z,3.53
2019-03-08T02:12:56.334Z,3.56
2019-03-08T02:14:00.616Z,3.54
2019-03-08T02:15:04.878Z,3.56
2019-03-08T02:16:09.200Z,3.56
2019-03-08T02:17:13.489Z,3.57
2019-03-08T02:18:17.770Z,3.57
2019-03-08T02:19:22.140Z,3.55
2019-03-08T02:20:26.367Z,3.58
2019-03-08T02:21:30.651Z,3.58
2019-03-08T02:22:34.884Z,3.59
2019-03-08T02:23:39.139Z,3.62
2019-03-08T02:24:43.418Z,3.59
2019-03-08T02:25:47.682Z,3.60
2019-03-08T02:26:51.960Z,3.57
2019-03-08T02:27:56.245Z,3.57
2019-03-08T02:29:00.516Z,3.54
2019-03-08T02:30:04.700Z,3.53
2019-03-08T02:31:12.034Z,3.54
2019-03-08T02:32:15.377Z,3.58
2019-03-08T02:33:19.591Z,3.60
2019-03-08T02:34:23.767Z,3.63
2019-03-08T02:35:28.087Z,3.62
2019-03-08T02:36:32.382Z,3.66
2019-03-08T02:37:36.520Z,3.66
2019-03-08T02:38:40.839Z,3.68
2019-03-08T02:39:45.101Z,3.66
2019-03-08T02:40:49.399Z,3.76
2019-03-08T02:41:53.677Z,3.82
2019-03-08T02:42:57.846Z,3.86
2019-03-08T02:44:02.133Z,3.83
2019-03-08T02:45:06.399Z,3.88
2019-03-08T02:46:10.656Z,3.90
2019-03-08T02:47:14.917Z,3.91
2019-03-08T02:48:19.067Z,4.00
2019-03-08T02:49:23.361Z,3.92
2019-03-08T02:50:27.643Z,3.99
2019-03-08T02:51:31.896Z,4.05
2019-03-08T02:52:36.177Z,4.05
2019-03-08T02:53:40.337Z,4.29
2019-03-08T02:54:44.514Z,4.40
2019-03-08T02:55:48.728Z,4.09
2019-03-08T02:56:53.031Z,4.15
2019-03-08T02:57:57.297Z,4.18
2019-03-08T02:59:01.561Z,4.06
2019-03-08T03:00:05.825Z,4.08
2019-03-08T03:01:09.983Z,4.08
2019-03-08T03:02:14.304Z,4.19
2019-03-08T03:03:18.420Z,4.15
2019-03-08T03:04:22.728Z,4.15
2019-03-08T03:05:26.971Z,4.26
2019-03-08T03:06:31.258Z,4.30
2019-03-08T03:07:35.635Z,4.20
2019-03-08T03:08:39.835Z,4.22
2019-03-08T03:09:43.993Z,4.30
2019-03-08T03:10:48.195Z,4.45
2019-03-08T03:11:52.511Z,4.38
2019-03-08T03:12:56.809Z,4.43
2019-03-08T03:14:01.062Z,4.31
2019-03-08T03:15:05.227Z,4.29
2019-03-08T03:16:09.544Z,4.37
2019-03-08T03:17:13.905Z,4.34
2019-03-08T03:18:18.050Z,4.20
2019-03-08T03:19:22.368Z,4.55
2019-03-08T03:20:26.616Z,4.51
2019-03-08T03:21:30.852Z,4.35
2019-03-08T03:22:35.083Z,4.52
2019-03-08T03:23:39.322Z,4.52
2019-03-08T03:24:43.567Z,4.56
2019-03-08T03:25:47.823Z,4.56
2019-03-08T03:26:51.984Z,4.50
2019-03-08T03:27:56.312Z,4.46
2019-03-08T03:29:00.444Z,4.49
2019-03-08T03:30:04.718Z,4.51
2019-03-08T03:31:08.910Z,4.50
2019-03-08T03:32:13.138Z,4.39
2019-03-08T03:33:17.358Z,4.43
2019-03-08T03:34:21.548Z,4.65
2019-03-08T03:35:25.754Z,4.49
2019-03-08T03:36:29.986Z,4.52
2019-03-08T03:37:34.309Z,4.50
2019-03-08T03:38:38.579Z,4.48
2019-03-08T03:39:42.718Z,4.67
2019-03-08T03:40:46.929Z,4.64
2019-03-08T03:41:51.089Z,4.61
2019-03-08T03:42:55.413Z,4.48
2019-03-08T03:43:59.682Z,4.69
2019-03-08T03:45:03.922Z,4.53
2019-03-08T03:46:08.176Z,4.57
2019-03-08T03:47:12.418Z,4.60
2019-03-08T03:48:16.687Z,4.51
2019-03-08T03:49:20.921Z,4.59
2019-03-08T03:50:25.176Z,4.86
2019-03-08T03:51:29.419Z,4.81
2019-03-08T03:52:33.679Z,4.59
2019-03-08T03:53:37.969Z,4.63
2019-03-08T03:54:42.189Z,4.69
2019-03-08T03:55:46.381Z,4.71
2019-03-08T03:56:50.618Z,4.62
2019-03-08T03:57:54.842Z,4.66
2019-03-08T03:58:59.005Z,4.59
2019-03-08T04:00:03.186Z,4.65
2019-03-08T04:01:07.503Z,4.96
2019-03-08T04:02:11.711Z,4.84
2019-03-08T04:03:15.863Z,4.81
2019-03-08T04:04:20.094Z,4.78
2019-03-08T04:05:24.270Z,4.94
2019-03-08T04:06:28.527Z,4.79
2019-03-08T04:07:32.679Z,4.81
2019-03-08T04:08:36.973Z,4.79
2019-03-08T04:09:41.130Z,4.85
2019-03-08T04:10:45.286Z,4.87
2019-03-08T04:11:49.499Z,4.76
2019-03-08T04:12:53.696Z,4.75
2019-03-08T04:13:57.878Z,4.76
2019-03-08T04:15:02.067Z,4.83
2019-03-08T04:16:06.347Z,4.78
2019-03-08T04:17:10.497Z,4.80
2019-03-08T04:18:14.779Z,4.78
2019-03-08T04:19:19.039Z,4.79
2019-03-08T04:20:23.158Z,4.78
2019-03-08T04:21:27.369Z,4.78
2019-03-08T04:22:31.579Z,4.82
2019-03-08T04:23:35.783Z,4.78
2019-03-08T04:24:40.010Z,4.84
2019-03-08T04:25:44.322Z,4.75
2019-03-08T04:26:48.564Z,4.74
2019-03-08T04:27:52.724Z,4.75
2019-03-08T04:28:56.989Z,4.74
2019-03-08T04:30:01.153Z,4.75
2019-03-08T04:31:05.512Z,4.84
2019-03-08T04:32:09.763Z,4.77
2019-03-08T04:33:14.020Z,4.82
2019-03-08T04:34:18.190Z,4.78
2019-03-08T04:35:22.468Z,4.88
2019-03-08T04:36:26.694Z,4.82
2019-03-08T04:37:30.868Z,4.92
2019-03-08T04:38:35.073Z,4.83
2019-03-08T04:39:39.294Z,4.86
2019-03-08T04:40:43.456Z,4.81
2019-03-08T04:41:47.787Z,4.90
2019-03-08T04:42:52.058Z,4.96
2019-03-08T04:43:56.311Z,4.91
2019-03-08T04:45:00.558Z,4.93
2019-03-08T04:46:04.763Z,4.98
2019-03-08T04:47:08.893Z,4.97
2019-03-08T04:48:13.084Z,4.93
2019-03-08T04:49:17.393Z,4.92
2019-03-08T04:50:21.678Z,4.90
2019-03-08T04:51:25.912Z,4.91
2019-03-08T04:52:30.156Z,4.98
2019-03-08T04:53:34.396Z,4.90
2019-03-08T04:54:38.660Z,4.93
2019-03-08T04:55:42.956Z,5.04
2019-03-08T04:56:47.209Z,5.00
2019-03-08T04:57:51.439Z,5.04
2019-03-08T04:58:55.576Z,5.07
2019-03-08T04:59:59.935Z,5.05
2019-03-08T05:01:04.153Z,5.14
2019-03-08T05:02:08.296Z,5.12
2019-03-08T05:03:12.582Z,5.18
2019-03-08T05:04:16.838Z,5.08
2019-03-08T05:05:21.028Z,5.11
2019-03-08T05:06:25.192Z,5.15
2019-03-08T05:07:29.486Z,5.09
2019-03-08T05:08:33.627Z,5.21
2019-03-08T05:09:37.941Z,5.12
2019-03-08T05:10:42.208Z,5.20
2019-03-08T05:11:46.409Z,5.21
2019-03-08T05:12:50.666Z,5.15
2019-03-08T05:13:54.860Z,5.23
2019-03-08T05:14:59.016Z,5.26
2019-03-08T05:16:03.356Z,5.27
2019-03-08T05:17:07.486Z,5.24
2019-03-08T05:18:11.762Z,5.24
2019-03-08T05:19:15.900Z,5.23
2019-03-08T05:20:20.112Z,5.18
2019-03-08T05:21:24.393Z,5.23
2019-03-08T05:22:28.452Z,5.33
2019-03-08T05:23:32.812Z,5.32
2019-03-08T05:24:37.122Z,5.31
2019-03-08T05:25:41.427Z,5.23
2019-03-08T05:26:45.537Z,5.34
2019-03-08T05:27:49.856Z,5.44
2019-03-08T05:28:54.010Z,5.43
2019-03-08T05:29:58.206Z,5.34
2019-03-08T05:31:02.441Z,5.42
2019-03-08T05:32:06.735Z,5.42
2019-03-08T05:33:10.872Z,5.37
2019-03-08T05:34:15.201Z,5.39
2019-03-08T05:35:19.332Z,5.48
2019-03-08T05:36:23.878Z,5.51
2019-03-08T05:37:28.013Z,5.56
2019-03-08T05:38:32.114Z,5.53
2019-03-08T05:39:36.395Z,5.59
2019-03-08T05:40:40.628Z,5.50
2019-03-08T05:41:44.874Z,5.43
2019-03-08T05:42:49.094Z,5.51
2019-03-08T05:43:53.358Z,5.49
2019-03-08T05:44:57.498Z,5.47
2019-03-08T05:46:01.764Z,5.60
2019-03-08T05:47:05.967Z,5.62
2019-03-08T05:48:10.254Z,5.59
2019-03-08T05:49:14.491Z,5.58
2019-03-08T05:50:18.629Z,5.60
2019-03-08T05:51:22.983Z,5.66
2019-03-08T05:52:27.177Z,5.66
2019-03-08T05:53:31.421Z,5.67
2019-03-08T05:54:35.658Z,5.72
2019-03-08T05:55:39.849Z,5.75
2019-03-08T05:56:44.126Z,5.71
2019-03-08T05:57:48.311Z,5.67
2019-03-08T05:58:52.482Z,5.62
2019-03-08T05:59:56.784Z,5.64
2019-03-08T06:01:01.049Z,5.69
2019-03-08T06:02:05.226Z,5.70
2019-03-08T06:03:09.495Z,5.69
2019-03-08T06:04:13.651Z,5.70
2019-03-08T06:05:17.843Z,5.70
2019-03-08T06:06:22.133Z,5.70
2019-03-08T06:07:26.394Z,5.65
2019-03-08T06:08:30.524Z,5.67
2019-03-08T06:09:34.788Z,5.68
2019-03-08T06:10:38.928Z,5.67
2019-03-08T06:11:43.155Z,5.74
2019-03-08T06:12:47.387Z,5.75
2019-03-08T06:13:51.599Z,5.77
2019-03-08T06:14:55.815Z,5.71
2019-03-08T06:16:00.134Z,5.72
2019-03-08T06:17:04.379Z,5.69
2019-03-08T06:18:08.600Z,5.69
2019-03-08T06:19:12.770Z,5.71
2019-03-08T06:20:17.086Z,5.70
2019-03-08T06:21:21.298Z,5.62
2019-03-08T06:22:25.561Z,5.63
2019-03-08T06:23:29.801Z,5.69
2019-03-08T06:24:33.928Z,5.67
2019-03-08T06:25:38.244Z,5.63
2019-03-08T06:26:42.499Z,5.69
2019-03-08T06:27:46.801Z,5.67
2019-03-08T06:28:51.048Z,5.70
2019-03-08T06:29:55.360Z,5.68
2019-03-08T06:30:59.591Z,5.73
2019-03-08T06:32:03.842Z,5.71
2019-03-08T06:33:08.123Z,5.77
2019-03-08T06:34:12.342Z,5.73
2019-03-08T06:35:16.532Z,5.74
2019-03-08T06:36:20.841Z,5.77
2019-03-08T06:37:25.096Z,5.78
2019-03-08T06:38:29.365Z,5.76
2019-03-08T06:39:33.555Z,5.78
2019-03-08T06:40:37.737Z,5.81
2019-03-08T06:41:42.060Z,5.77
2019-03-08T06:42:46.305Z,5.78
2019-03-08T06:43:50.461Z,5.76
2019-03-08T06:44:54.814Z,5.74
2019-03-08T06:45:59.091Z,5.75
2019-03-08T06:47:03.364Z,5.77
2019-03-08T06:48:07.495Z,5.74
2019-03-08T06:49:11.656Z,5.73
2019-03-08T06:50:15.989Z,5.75
2019-03-08T06:51:20.211Z,5.73
2019-03-08T06:52:24.377Z,5.76
2019-03-08T06:53:28.745Z,5.75
2019-03-08T06:54:32.949Z,5.71
2019-03-08T06:55:37.212Z,5.72
2019-03-08T06:56:41.369Z,5.67
2019-03-08T06:57:45.651Z,5.76
2019-03-08T06:58:49.901Z,5.75
2019-03-08T06:59:54.165Z,5.68
2019-03-08T07:00:58.396Z,5.67
2019-03-08T07:02:02.545Z,5.70
2019-03-08T07:03:06.884Z,5.70
2019-03-08T07:04:11.099Z,5.73
2019-03-08T07:05:15.297Z,5.69
2019-03-08T07:06:19.472Z,5.68
2019-03-08T07:07:23.775Z,5.74
2019-03-08T07:08:28.064Z,5.77
2019-03-08T07:09:32.269Z,5.70
2019-03-08T07:10:36.556Z,5.69
2019-03-08T07:11:40.773Z,5.70
2019-03-08T07:12:45.016Z,5.74
2019-03-08T07:13:49.176Z,5.82
2019-03-08T07:14:53.339Z,5.77
2019-03-08T07:15:57.781Z,5.70
2019-03-08T07:17:01.881Z,5.73
2019-03-08T07:18:12.767Z,5.76
2019-03-08T07:19:10.422Z,5.79
2019-03-08T07:20:14.691Z,5.81
2019-03-08T07:21:18.851Z,5.83
2019-03-08T07:22:23.152Z,5.78
2019-03-08T07:23:28.201Z,5.75
2019-03-08T07:24:31.573Z,5.82
2019-03-08T07:25:35.744Z,5.83
2019-03-08T07:26:39.963Z,5.83
2019-03-08T07:27:44.166Z,5.81
2019-03-08T07:28:48.422Z,5.86
2019-03-08T07:29:52.678Z,5.90
2019-03-08T07:30:58.146Z,5.89
2019-03-08T07:32:01.190Z,5.89
2019-03-08T07:33:05.333Z,5.92
2019-03-08T07:34:11.114Z,5.92
2019-03-08T07:35:13.838Z,5.91
2019-03-08T07:36:18.116Z,5.92
2019-03-08T07:37:22.354Z,5.90
2019-03-08T07:38:26.559Z,5.92
2019-03-08T07:39:30.737Z,5.92
2019-03-08T07:40:35.033Z,5.92
2019-03-08T07:41:39.138Z,5.92
2019-03-08T07:42:45.050Z,5.93
2019-03-08T07:43:47.638Z,5.95
2019-03-08T07:44:51.867Z,5.93
2019-03-08T07:45:56.098Z,5.99
2019-03-08T07:47:00.363Z,6.00
2019-03-08T07:48:04.611Z,5.96
2019-03-08T07:49:08.820Z,5.98
2019-03-08T07:50:12.980Z,6.00
2019-03-08T07:51:17.198Z,5.99
2019-03-08T07:52:21.474Z,6.01
2019-03-08T07:53:25.746Z,5.99
2019-03-08T07:54:30.022Z,5.97
2019-03-08T07:55:34.207Z,5.99
2019-03-08T07:56:38.486Z,6.02
2019-03-08T07:57:42.659Z,6.02
2019-03-08T07:58:46.861Z,6.02
2019-03-08T07:59:54.002Z,6.03
2019-03-08T08:00:55.328Z,5.99
2019-03-08T08:01:59.539Z,5.99
2019-03-08T08:03:04.383Z,6.01
2019-03-08T08:04:08.014Z,6.00
2019-03-08T08:05:12.450Z,5.98
2019-03-08T08:06:16.567Z,6.01
2019-03-08T08:07:20.778Z,6.01
2019-03-08T08:08:25.056Z,6.03
2019-03-08T08:09:29.365Z,6.05
2019-03-08T08:10:33.586Z,6.02
2019-03-08T08:11:37.833Z,6.03
2019-03-08T08:12:41.975Z,6.01
2019-03-08T08:13:46.296Z,6.02
2019-03-08T08:14:50.575Z,6.03
2019-03-08T08:15:55.886Z,6.06
2019-03-08T08:16:59.699Z,6.06
2019-03-08T08:18:03.858Z,6.06
2019-03-08T08:19:08.076Z,6.02
2019-03-08T08:20:16.435Z,6.03
2019-03-08T08:21:16.619Z,6.04
2019-03-08T08:22:20.877Z,6.06
2019-03-08T08:23:33.854Z,6.06
2019-03-08T08:24:29.141Z,6.03
2019-03-08T08:25:36.702Z,5.99
2019-03-08T08:26:37.698Z,6.01
2019-03-08T08:27:41.928Z,5.98
2019-03-08T08:28:49.885Z,5.97
2019-03-08T08:29:50.414Z,5.96
2019-03-08T08:30:54.668Z,5.92
2019-03-08T08:31:58.883Z,5.88
2019-03-08T08:33:03.010Z,5.85
2019-03-08T08:34:07.289Z,5.80
2019-03-08T08:35:11.432Z,5.75
2019-03-08T08:36:15.676Z,5.70
2019-03-08T08:37:19.957Z,5.67
2019-03-08T08:38:24.212Z,5.62
2019-03-08T08:39:28.447Z,5.56
2019-03-08T08:40:32.703Z,5.52
2019-03-08T08:41:36.910Z,5.50
2019-03-08T08:42:41.165Z,5.49
2019-03-08T08:43:45.308Z,5.45
2019-03-08T08:44:49.613Z,5.40
2019-03-08T08:45:53.863Z,5.33
2019-03-08T08:46:58.002Z,5.31
2019-03-08T08:48:02.198Z,5.32
2019-03-08T08:49:06.513Z,5.31
2019-03-08T08:50:10.739Z,5.33
2019-03-08T08:51:15.012Z,5.33
2019-03-08T08:52:19.246Z,5.32
2019-03-08T08:53:23.583Z,5.30
2019-03-08T08:54:27.897Z,5.30
2019-03-08T08:55:32.095Z,5.29
2019-03-08T08:56:36.270Z,5.31
2019-03-08T08:57:40.426Z,5.32
2019-03-08T08:58:44.695Z,5.32
2019-03-08T08:59:48.812Z,5.31
2019-03-08T09:00:56.060Z,5.32
2019-03-08T09:01:59.353Z,5.28
2019-03-08T09:03:03.585Z,5.25
2019-03-08T09:04:07.823Z,5.15
2019-03-08T09:05:12.083Z,5.06
2019-03-08T09:06:16.355Z,5.08
2019-03-08T09:07:20.562Z,5.09
2019-03-08T09:08:24.702Z,5.09
2019-03-08T09:09:29.005Z,5.04
2019-03-08T09:10:33.247Z,5.03
2019-03-08T09:11:44.180Z,5.01
2019-03-08T09:12:41.704Z,4.98
2019-03-08T09:13:45.815Z,4.90
2019-03-08T09:14:50.017Z,4.95
2019-03-08T09:15:54.250Z,4.99
2019-03-08T09:16:58.641Z,4.99
2019-03-08T09:18:02.806Z,4.97
2019-03-08T09:19:06.912Z,4.91
2019-03-08T09:20:11.188Z,4.77
2019-03-08T09:21:15.350Z,4.83
2019-03-08T09:22:19.567Z,4.85
2019-03-08T09:23:23.750Z,4.72
2019-03-08T09:24:27.967Z,4.57
2019-03-08T09:25:32.240Z,4.49
2019-03-08T09:26:36.486Z,4.59
2019-03-08T09:27:40.630Z,4.61
2019-03-08T09:28:44.927Z,4.66
2019-03-08T09:29:49.199Z,4.75
2019-03-08T09:30:53.339Z,4.78
2019-03-08T09:31:57.661Z,4.79
2019-03-08T09:33:01.934Z,4.83
2019-03-08T09:34:06.163Z,4.75
2019-03-08T09:35:12.413Z,4.73
2019-03-08T09:36:14.661Z,4.79
2019-03-08T09:37:18.814Z,4.64
2019-03-08T09:38:23.084Z,4.62
2019-03-08T09:39:27.249Z,4.63
2019-03-08T09:40:31.553Z,4.67
2019-03-08T09:41:35.774Z,4.70
2019-03-08T09:42:40.046Z,4.64
2019-03-08T09:43:44.205Z,4.62
2019-03-08T09:44:48.505Z,4.53
2019-03-08T09:45:52.683Z,4.49
2019-03-08T09:46:57.003Z,4.44
2019-03-08T09:48:01.187Z,4.49
2019-03-08T09:49:05.478Z,4.52
2019-03-08T09:50:09.612Z,4.53
2019-03-08T09:51:13.897Z,4.53
2019-03-08T09:52:18.031Z,4.30
2019-03-08T09:53:22.340Z,4.38
2019-03-08T09:54:26.597Z,4.33
2019-03-08T09:55:30.835Z,4.17
2019-03-08T09:56:35.086Z,4.29
2019-03-08T09:57:39.339Z,4.37
2019-03-08T09:58:43.599Z,4.44
2019-03-08T09:59:47.756Z,4.50
2019-03-08T10:00:51.964Z,4.44
2019-03-08T10:01:56.268Z,4.45
2019-03-08T10:03:00.515Z,4.46
2019-03-08T10:04:04.759Z,4.57
2019-03-08T10:05:09.017Z,4.59
2019-03-08T10:06:13.319Z,4.24
2019-03-08T10:07:17.679Z,4.15
2019-03-08T10:08:21.885Z,3.90
2019-03-08T10:09:26.150Z,3.74
2019-03-08T10:10:30.392Z,3.97
2019-03-08T10:11:34.672Z,3.79
2019-03-08T10:12:38.849Z,3.69
2019-03-08T10:13:43.209Z,3.84
2019-03-08T10:14:47.338Z,3.92
2019-03-08T10:15:51.663Z,3.78
2019-03-08T10:16:55.901Z,3.78
2019-03-08T10:18:00.060Z,3.94
2019-03-08T10:19:04.275Z,3.94
2019-03-08T10:20:08.578Z,3.99
2019-03-08T10:21:12.749Z,3.99
2019-03-08T10:22:16.956Z,4.21
2019-03-08T10:23:21.131Z,4.23
2019-03-08T10:24:25.483Z,4.06
2019-03-08T10:25:29.748Z,4.08
2019-03-08T10:26:33.913Z,4.18
2019-03-08T10:27:38.537Z,4.17
2019-03-08T10:28:42.419Z,4.02
2019-03-08T10:29:46.720Z,3.87
2019-03-08T10:30:50.887Z,4.10
2019-03-08T10:31:55.196Z,4.10
2019-03-08T10:32:59.345Z,3.86
2019-03-08T10:34:03.689Z,3.97
2019-03-08T10:35:07.937Z,3.90
2019-03-08T10:36:12.268Z,3.88
2019-03-08T10:37:16.535Z,3.82
2019-03-08T10:38:22.836Z,3.76
2019-03-08T10:39:25.081Z,3.57
2019-03-08T10:40:29.326Z,3.61
2019-03-08T10:41:33.611Z,3.71
2019-03-08T10:42:37.869Z,3.63
2019-03-08T10:43:42.138Z,3.43
2019-03-08T10:44:46.462Z,3.52
2019-03-08T10:45:50.732Z,3.32
2019-03-08T10:46:54.981Z,3.44
2019-03-08T10:47:59.239Z,3.57
2019-03-08T10:49:03.778Z,3.35
2019-03-08T10:50:07.758Z,3.53
2019-03-08T10:51:11.884Z,3.57
2019-03-08T10:52:17.926Z,3.71
2019-03-08T10:53:20.487Z,3.54
2019-03-08T10:54:24.787Z,3.17
2019-03-08T10:55:29.037Z,2.98
2019-03-08T10:56:33.287Z,2.87
2019-03-08T10:57:37.559Z,3.22
2019-03-08T10:58:41.726Z,3.05
2019-03-08T10:59:46.098Z,3.04
2019-03-08T11:00:50.327Z,3.28
2019-03-08T11:01:54.588Z,3.29
2019-03-08T11:02:58.851Z,3.42
2019-03-08T11:04:03.125Z,3.50
2019-03-08T11:05:07.364Z,3.21
2019-03-08T11:06:11.639Z,3.10
2019-03-08T11:07:15.900Z,3.12
2019-03-08T11:08:29.352Z,3.25
2019-03-08T11:09:24.466Z,3.13
2019-03-08T11:10:28.801Z,2.77
2019-03-08T11:11:33.021Z,2.91
2019-03-08T11:12:37.278Z,3.20
2019-03-08T11:13:43.447Z,3.40
2019-03-08T11:14:45.881Z,3.34
2019-03-08T11:15:50.117Z,3.50
2019-03-08T11:16:54.413Z,3.49
2019-03-08T11:17:58.697Z,3.39
2019-03-08T11:19:08.735Z,3.42
2019-03-08T11:20:07.172Z,3.54
2019-03-08T11:21:11.484Z,3.61
2019-03-08T11:22:15.739Z,3.84
2019-03-08T11:23:20.036Z,4.02
2019-03-08T11:24:24.314Z,3.89
2019-03-08T11:25:35.037Z,3.99
2019-03-08T11:26:32.881Z,3.69
2019-03-08T11:27:37.312Z,3.77
2019-03-08T11:28:41.538Z,4.09
2019-03-08T11:29:45.839Z,4.02
2019-03-08T11:30:53.971Z,3.93
2019-03-08T11:31:54.431Z,3.97
2019-03-08T11:32:58.685Z,3.74
2019-03-08T11:34:02.984Z,3.67
2019-03-08T11:35:07.270Z,4.00
2019-03-08T11:36:11.542Z,3.91
2019-03-08T11:37:18.831Z,3.72
2019-03-08T11:38:22.819Z,3.52
2019-03-08T11:39:26.461Z,3.48
2019-03-08T11:40:30.754Z,3.89
2019-03-08T11:41:35.035Z,3.72
2019-03-08T11:42:39.233Z,3.84
2019-03-08T11:43:43.557Z,3.77
2019-03-08T11:44:47.942Z,4.16
2019-03-08T11:45:52.274Z,4.27
2019-03-08T11:46:56.495Z,3.98
2019-03-08T11:48:00.775Z,3.73
2019-03-08T11:49:05.057Z,3.82
2019-03-08T11:50:09.390Z,3.54
2019-03-08T11:51:13.685Z,3.94
2019-03-08T11:52:17.931Z,4.08
2019-03-08T11:53:22.228Z,4.13
2019-03-08T11:54:26.392Z,4.25
2019-03-08T11:55:30.747Z,4.09
2019-03-08T11:56:35.164Z,4.09
2019-03-08T11:57:39.321Z,4.09
2019-03-08T11:58:43.595Z,4.18
2019-03-08T11:59:47.891Z,3.97
2019-03-08T12:00:53.198Z,4.18
2019-03-08T12:01:56.488Z,4.14
2019-03-08T12:03:00.766Z,3.78
2019-03-08T12:04:05.135Z,3.63
2019-03-08T12:05:09.385Z,3.43
2019-03-08T12:06:13.677Z,3.57
2019-03-08T12:07:17.960Z,3.62
2019-03-08T12:08:22.160Z,3.67
2019-03-08T12:09:26.480Z,3.64
2019-03-08T12:10:30.769Z,3.81
2019-03-08T12:11:35.099Z,4.02
2019-03-08T12:12:39.457Z,3.74
2019-03-08T12:13:43.704Z,3.79
2019-03-08T12:14:48.085Z,3.26
2019-03-08T12:15:52.352Z,3.53
2019-03-08T12:16:56.615Z,3.32
2019-03-08T12:18:00.922Z,3.46
2019-03-08T12:19:05.184Z,3.09
2019-03-08T12:20:09.468Z,3.17
2019-03-08T12:21:13.743Z,3.03
2019-03-08T12:22:18.042Z,3.35
2019-03-08T12:23:22.309Z,3.45
2019-03-08T12:24:26.638Z,3.54
2019-03-08T12:25:30.947Z,3.38
2019-03-08T12:26:35.256Z,3.01
2019-03-08T12:27:39.510Z,2.81
2019-03-08T12:28:43.792Z,2.88
2019-03-08T12:29:48.084Z,2.84
2019-03-08T12:30:52.334Z,3.21
2019-03-08T12:31:56.733Z,3.30
2019-03-08T12:33:01.061Z,2.89
2019-03-08T12:34:05.336Z,3.11
2019-03-08T12:35:09.632Z,3.16
2019-03-08T12:36:13.959Z,3.05
2019-03-08T12:37:18.243Z,2.92
2019-03-08T12:38:22.431Z,3.00
2019-03-08T12:39:26.753Z,3.10
2019-03-08T12:40:31.056Z,3.39
2019-03-08T12:41:35.361Z,3.35
2019-03-08T12:42:39.651Z,3.44
2019-03-08T12:43:45.097Z,3.72
2019-03-08T12:44:48.265Z,3.63
2019-03-08T12:45:52.592Z,3.77
2019-03-08T12:46:56.815Z,3.88
2019-03-08T12:48:01.044Z,3.90
2019-03-08T12:49:05.414Z,3.50
2019-03-08T12:50:09.690Z,3.64
2019-03-08T12:51:14.054Z,3.49
2019-03-08T12:52:18.337Z,3.55
2019-03-08T12:53:22.601Z,3.44
2019-03-08T12:54:26.936Z,3.07
2019-03-08T12:55:31.221Z,2.99
2019-03-08T12:56:35.485Z,3.00
2019-03-08T12:57:39.793Z,3.13
2019-03-08T12:58:44.174Z,3.23
2019-03-08T12:59:48.430Z,3.16
2019-03-08T13:00:52.728Z,3.20
2019-03-08T13:01:57.032Z,3.27
2019-03-08T13:03:01.339Z,3.53
2019-03-08T13:04:05.714Z,3.69
2019-03-08T13:05:09.968Z,3.24
2019-03-08T13:06:14.263Z,3.33
2019-03-08T13:07:18.595Z,3.09
2019-03-08T13:08:22.848Z,3.18
2019-03-08T13:09:27.145Z,3.12
2019-03-08T13:10:31.469Z,3.27
2019-03-08T13:11:35.694Z,3.21
2019-03-08T13:12:40.054Z,3.24
2019-03-08T13:13:44.320Z,3.41
2019-03-08T13:14:48.720Z,3.29
2019-03-08T13:15:52.954Z,3.17
2019-03-08T13:16:57.272Z,3.10
2019-03-08T13:18:01.532Z,3.09
2019-03-08T13:19:05.812Z,2.86
2019-03-08T13:20:10.000Z,3.03
2019-03-08T13:21:14.318Z,2.98
2019-03-08T13:22:18.610Z,2.48
2019-03-08T13:23:22.886Z,2.61
2019-03-08T13:24:27.139Z,2.71
2019-03-08T13:25:31.413Z,2.86
2019-03-08T13:26:35.720Z,2.75
2019-03-08T13:27:39.989Z,2.93
2019-03-08T13:28:44.278Z,3.17
2019-03-08T13:29:48.555Z,3.30
2019-03-08T13:30:52.860Z,3.10
2019-03-08T13:31:57.062Z,3.08
2019-03-08T13:33:01.343Z,2.71
2019-03-08T13:34:05.677Z,2.72
2019-03-08T13:35:09.975Z,2.45
2019-03-08T13:36:14.250Z,2.61
2019-03-08T13:37:18.524Z,2.55
2019-03-08T13:38:22.814Z,2.48
2019-03-08T13:39:27.104Z,2.56
2019-03-08T13:40:31.422Z,2.61
2019-03-08T13:41:35.729Z,2.96
2019-03-08T13:42:40.132Z,3.04
2019-03-08T13:43:44.370Z,2.85
2019-03-08T13:44:48.675Z,2.70
2019-03-08T13:45:52.963Z,2.84
2019-03-08T13:46:57.268Z,2.65
2019-03-08T13:48:01.550Z,2.53
2019-03-08T13:49:05.847Z,2.59
2019-03-08T13:50:10.112Z,2.64
2019-03-08T13:51:14.404Z,2.92
2019-03-08T13:52:18.792Z,3.01
2019-03-08T13:53:23.072Z,3.06
2019-03-08T13:54:27.364Z,3.17
2019-03-08T13:55:31.648Z,3.21
2019-03-08T13:56:35.930Z,3.33
2019-03-08T13:57:40.225Z,3.32
2019-03-08T13:58:44.543Z,3.50
2019-03-08T13:59:48.827Z,3.54
2019-03-08T14:00:53.031Z,3.62
2019-03-08T14:01:57.356Z,3.72
2019-03-08T14:03:01.550Z,3.61
2019-03-08T14:04:05.902Z,3.15
2019-03-08T14:05:10.171Z,3.26
2019-03-08T14:06:14.436Z,2.89
2019-03-08T14:07:18.625Z,3.29
2019-03-08T14:08:22.969Z,3.13
2019-03-08T14:09:27.144Z,3.22
2019-03-08T14:10:31.465Z,3.23
2019-03-08T14:11:35.751Z,2.81
2019-03-08T14:12:40.068Z,2.77
2019-03-08T14:13:44.257Z,2.88
2019-03-08T14:14:48.640Z,2.78